Notl Virgil

*Note: All times are displayed in the local standard time of the station location.
**Rain - Equipment is designed to accurately record liquid precipitation; under conditions when precipitation is not in liquid form, the data displayed may not properly reflect rainfall values.

Date Max Temp
(°C)
Min Temp
(°C)
Avg Temp
(°C)
Rain (mm) Avg RH (%) Solar Rad (kJ/m2)
Mon, Apr 23, 2018 19.2 0.5 9.8 0.0 54.6 18190.7
Sun, Apr 22, 2018 16.6 -2.4 8.1 0.0 52.9 18553.8
Sat, Apr 21, 2018 14.4 -3.3 6.0 0.0 56.8 17297.7
Fri, Apr 20, 2018 8.2 -1.4 3.2 0.0 62.6 17126.7
Thu, Apr 19, 2018 4.3 1.1 2.5 0.0 71.6 8471.0
Wed, Apr 18, 2018 4.8 1.0 2.7 0.0 79.4 7382.5
Tue, Apr 17, 2018 1.8 -0.1 1.0 0.4 78.5 7325.4
DateTime Avg Temp (°C) Rain (mm) RH (%) Solar Rad (kJ/m2)
Tue, Apr 24, 2018 18:00 13.6 0.6 82.0 215.4
Tue, Apr 24, 2018 17:00 14.7 0.0 68.5 298.3
Tue, Apr 24, 2018 16:00 13.0 0.0 64.0 379.7
Tue, Apr 24, 2018 15:00 13.9 0.0 60.8 814.1
Tue, Apr 24, 2018 14:00 18.1 0.0 43.5 1250.0
Tue, Apr 24, 2018 13:00 19.0 0.0 39.8 1688.9
Tue, Apr 24, 2018 12:00 17.2 0.0 42.0 1218.2
Tue, Apr 24, 2018 11:00 15.9 0.0 53.5 1103.4
Tue, Apr 24, 2018 10:00 15.2 0.0 59.0 1100.1
Tue, Apr 24, 2018 09:00 14.5 0.0 58.3 547.9
Tue, Apr 24, 2018 08:00 12.6 0.0 66.5 290.4
Tue, Apr 24, 2018 07:00 10.1 0.0 72.5 40.3
Tue, Apr 24, 2018 06:00 10.4 0.0 69.8 0.3
Tue, Apr 24, 2018 05:00 7.3 0.0 74.8 0.6
Tue, Apr 24, 2018 04:00 5.2 0.0 81.5 0.3
Tue, Apr 24, 2018 03:00 5.5 0.0 77.3 0.0
Tue, Apr 24, 2018 02:00 5.3 0.0 79.3 0.0
Tue, Apr 24, 2018 01:00 5.1 0.0 79.8 0.9
Tue, Apr 24, 2018 00:00 5.3 0.0 81.5 0.3
Mon, Apr 23, 2018 23:00 5.5 0.0 80.0 1.2
Mon, Apr 23, 2018 22:00 6.6 0.0 75.5 0.3
Mon, Apr 23, 2018 21:00 8.0 0.0 68.0 1.8
Mon, Apr 23, 2018 20:00 11.9 0.0 50.3 114.4
Mon, Apr 23, 2018 19:00 14.6 0.0 42.5 503.4
Mon, Apr 23, 2018 18:00 16.8 0.0 37.3 1039.1
Mon, Apr 23, 2018 17:00 18.4 0.0 31.0 1499.7
Mon, Apr 23, 2018 16:00 18.8 0.0 29.0 1821.3
Mon, Apr 23, 2018 15:00 17.5 0.0 33.5 2140.7
Mon, Apr 23, 2018 14:00 16.3 0.0 35.8 2299.1
Mon, Apr 23, 2018 13:00 16.2 0.0 39.0 2187.4
Mon, Apr 23, 2018 12:00 18.2 0.0 29.3 2035.8
Mon, Apr 23, 2018 11:00 16.4 0.0 28.0 1768.4
Mon, Apr 23, 2018 10:00 14.1 0.0 29.3 1377.6
Mon, Apr 23, 2018 09:00 11.4 0.0 38.3 916.7
Mon, Apr 23, 2018 08:00 5.0 0.0 66.8 428.5
Mon, Apr 23, 2018 07:00 1.1 0.0 76.0 52.9
Mon, Apr 23, 2018 06:00 1.3 0.0 74.5 0.6
Mon, Apr 23, 2018 05:00 3.3 0.0 63.0 0.3
Mon, Apr 23, 2018 04:00 3.1 0.0 65.8 0.0
Mon, Apr 23, 2018 03:00 2.2 0.0 75.5 0.0
Mon, Apr 23, 2018 02:00 1.0 0.0 85.8 1.2
Mon, Apr 23, 2018 01:00 2.7 0.0 75.5 0.0
Mon, Apr 23, 2018 00:00 5.5 0.0 59.8 0.3
Sun, Apr 22, 2018 23:00 5.5 0.0 66.3 0.3
Sun, Apr 22, 2018 22:00 6.4 0.0 62.8 0.3
Sun, Apr 22, 2018 21:00 11.4 0.0 37.0 2.4
Sun, Apr 22, 2018 20:00 14.8 0.0 25.8 130.4
Sun, Apr 22, 2018 19:00 16.3 0.0 21.5 578.5


asterix Register now to access more data! asterix